createdAt,value
2023-05-15T00:00:44.451Z,7.20
2023-05-15T00:03:12.269Z,7.18
2023-05-15T00:05:39.667Z,7.30
2023-05-15T00:08:06.710Z,7.20
2023-05-15T00:10:33.772Z,7.63
2023-05-15T00:13:00.981Z,8.43
2023-05-15T00:15:28.070Z,8.75
2023-05-15T00:17:55.472Z,8.88
2023-05-15T00:20:22.690Z,8.38
2023-05-15T00:22:49.841Z,11.30
2023-05-15T00:25:19.386Z,8.75
2023-05-15T00:27:46.603Z,9.18
2023-05-15T00:30:14.474Z,10.00
2023-05-15T00:32:41.630Z,9.80
2023-05-15T00:35:08.869Z,9.55
2023-05-15T00:37:35.910Z,10.50
2023-05-15T00:40:02.949Z,10.50
2023-05-15T00:42:30.460Z,9.85
2023-05-15T00:44:57.490Z,9.50
2023-05-15T00:47:24.601Z,11.00
2023-05-15T00:49:51.729Z,10.63
2023-05-15T00:52:19.324Z,10.98
2023-05-15T00:54:46.436Z,10.65
2023-05-15T00:57:13.561Z,11.32
2023-05-15T00:59:40.682Z,10.40
2023-05-15T01:02:07.821Z,11.15
2023-05-15T01:04:34.849Z,10.15
2023-05-15T01:07:01.946Z,9.80
2023-05-15T01:09:29.032Z,9.45
2023-05-15T01:11:56.090Z,9.52
2023-05-15T01:14:23.246Z,9.85
2023-05-15T01:16:50.374Z,10.25
2023-05-15T01:19:17.579Z,10.13
2023-05-15T01:22:03.539Z,9.40
2023-05-15T01:24:42.934Z,9.88
2023-05-15T01:27:19.166Z,9.65
2023-05-15T01:29:56.810Z,10.25
2023-05-15T01:32:30.584Z,9.63
2023-05-15T01:34:58.721Z,10.75
2023-05-15T01:37:26.183Z,11.00
2023-05-15T01:39:54.404Z,11.05
2023-05-15T01:42:21.560Z,11.98
2023-05-15T01:44:52.466Z,10.90
2023-05-15T01:47:20.837Z,12.13
2023-05-15T01:49:47.873Z,12.63
2023-05-15T01:52:25.602Z,13.30
2023-05-15T01:54:52.688Z,13.57
2023-05-15T01:57:20.143Z,14.23
2023-05-15T01:59:47.233Z,15.07
2023-05-15T02:02:14.336Z,14.88
2023-05-15T02:04:41.498Z,14.73
2023-05-15T02:07:08.548Z,16.20
2023-05-15T02:09:35.961Z,14.63
2023-05-15T02:12:02.998Z,16.05
2023-05-15T02:14:30.471Z,15.20
2023-05-15T02:16:57.544Z,14.38
2023-05-15T02:19:24.648Z,15.85
2023-05-15T02:21:51.683Z,15.88
2023-05-15T02:24:18.786Z,15.90
2023-05-15T02:26:48.856Z,15.45
2023-05-15T02:29:34.471Z,14.68
2023-05-15T02:32:20.191Z,14.68
2023-05-15T02:34:55.168Z,14.85
2023-05-15T02:37:24.973Z,14.27
2023-05-15T02:39:54.347Z,15.48
2023-05-15T02:42:21.399Z,15.15
2023-05-15T02:44:48.565Z,13.48
2023-05-15T02:47:15.846Z,15.07
2023-05-15T02:49:42.925Z,16.13
2023-05-15T02:52:10.043Z,15.05
2023-05-15T02:54:37.069Z,14.82
2023-05-15T02:57:04.179Z,15.30
2023-05-15T02:59:31.180Z,15.32
2023-05-15T03:01:58.229Z,15.43
2023-05-15T03:04:25.322Z,16.48
2023-05-15T03:06:52.438Z,17.08
2023-05-15T03:09:19.529Z,16.20
2023-05-15T03:11:46.601Z,17.52
2023-05-15T03:14:13.770Z,18.55
2023-05-15T03:16:41.019Z,17.92
2023-05-15T03:19:08.116Z,16.63
2023-05-15T03:21:35.239Z,16.90
2023-05-15T03:24:02.330Z,16.58
2023-05-15T03:26:29.429Z,16.88
2023-05-15T03:28:56.577Z,16.58
2023-05-15T03:31:23.705Z,17.15
2023-05-15T03:33:51.401Z,16.15
2023-05-15T03:36:18.492Z,16.73
2023-05-15T03:38:45.597Z,16.33
2023-05-15T03:41:12.710Z,16.08
2023-05-15T03:43:39.769Z,15.57
2023-05-15T03:46:06.855Z,16.17
2023-05-15T03:48:33.957Z,16.73
2023-05-15T03:51:01.010Z,16.45
2023-05-15T03:53:28.079Z,16.45
2023-05-15T03:55:55.208Z,15.80
2023-05-15T03:58:22.287Z,15.90
2023-05-15T04:00:49.436Z,16.65
2023-05-15T04:03:16.660Z,17.42
2023-05-15T04:05:43.937Z,16.17
2023-05-15T04:08:12.439Z,19.02
2023-05-15T04:10:39.664Z,17.05
2023-05-15T04:13:06.732Z,16.95
2023-05-15T04:15:33.819Z,17.17
2023-05-15T04:18:01.198Z,16.52
2023-05-15T04:20:28.337Z,15.65
2023-05-15T04:22:55.420Z,16.30
2023-05-15T04:25:22.700Z,15.85
2023-05-15T04:27:49.878Z,15.85
2023-05-15T04:30:17.012Z,17.02
2023-05-15T04:32:44.437Z,17.17
2023-05-15T04:35:13.338Z,16.15
2023-05-15T04:37:40.728Z,17.23
2023-05-15T04:40:08.342Z,15.75
2023-05-15T04:42:37.139Z,15.73
2023-05-15T04:45:05.598Z,16.00
2023-05-15T04:47:32.810Z,17.13
2023-05-15T04:50:00.046Z,16.40
2023-05-15T04:52:27.100Z,16.63
2023-05-15T04:54:55.805Z,16.95
2023-05-15T04:57:23.288Z,16.75
2023-05-15T04:59:50.431Z,16.65
2023-05-15T05:02:20.971Z,17.02
2023-05-15T05:07:15.680Z,17.88
2023-05-15T05:09:42.715Z,18.25
2023-05-15T05:12:09.908Z,19.73
2023-05-15T05:14:36.986Z,18.75
2023-05-15T05:17:04.223Z,20.67
2023-05-15T05:19:31.332Z,20.48
2023-05-15T05:22:01.388Z,20.20
2023-05-15T05:24:28.589Z,20.85
2023-05-15T05:26:58.125Z,21.38
2023-05-15T05:29:26.001Z,20.98
2023-05-15T05:31:53.251Z,21.75
2023-05-15T05:34:20.576Z,21.40
2023-05-15T05:36:47.694Z,20.75
2023-05-15T05:39:15.388Z,20.83
2023-05-15T05:41:42.504Z,20.90
2023-05-15T05:44:09.588Z,21.17
2023-05-15T05:46:36.735Z,20.98
2023-05-15T05:49:03.812Z,21.25
2023-05-15T05:51:31.681Z,21.00
2023-05-15T05:53:58.878Z,20.13
2023-05-15T05:56:26.541Z,21.05
2023-05-15T05:58:53.720Z,19.88
2023-05-15T06:01:21.367Z,20.58
2023-05-15T06:03:48.589Z,19.55
2023-05-15T06:06:15.804Z,19.60
2023-05-15T06:08:42.878Z,19.00
2023-05-15T06:11:09.920Z,18.00
2023-05-15T06:13:37.667Z,17.45
2023-05-15T06:16:04.904Z,15.38
2023-05-15T06:18:32.053Z,14.48
2023-05-15T06:21:00.257Z,12.98
2023-05-15T06:23:27.531Z,11.77
2023-05-15T06:25:54.563Z,10.55
2023-05-15T06:28:21.629Z,10.07
2023-05-15T06:30:48.898Z,9.40
2023-05-15T06:33:16.057Z,8.75
2023-05-15T06:35:43.100Z,7.57
2023-05-15T06:38:10.316Z,7.55
2023-05-15T06:40:37.473Z,7.22
2023-05-15T06:43:04.562Z,7.10
2023-05-15T06:45:31.721Z,7.30
2023-05-15T06:48:01.585Z,7.32
2023-05-15T06:50:29.076Z,6.95
2023-05-15T06:52:56.188Z,6.60
2023-05-15T06:55:23.432Z,6.32
2023-05-15T06:57:50.891Z,6.53
2023-05-15T07:00:18.162Z,6.93
2023-05-15T07:02:45.289Z,6.50
2023-05-15T07:05:12.629Z,6.30
2023-05-15T07:07:39.833Z,6.43
2023-05-15T07:10:07.772Z,6.45
2023-05-15T07:12:35.142Z,5.80
2023-05-15T07:15:02.236Z,5.70
2023-05-15T07:17:29.456Z,5.13
2023-05-15T07:19:56.651Z,4.50
2023-05-15T07:22:23.734Z,3.80
2023-05-15T07:24:50.799Z,4.05
2023-05-15T07:27:17.818Z,3.97
2023-05-15T07:29:44.970Z,3.65
2023-05-15T07:32:12.123Z,3.72
2023-05-15T07:34:39.212Z,3.55
2023-05-15T07:37:06.251Z,3.50
2023-05-15T07:39:33.360Z,3.35
2023-05-15T07:42:00.785Z,3.40
2023-05-15T07:44:27.855Z,3.22
2023-05-15T07:46:56.605Z,3.15
2023-05-15T07:49:23.677Z,3.00
2023-05-15T07:51:50.790Z,3.17
2023-05-15T07:54:17.821Z,3.08
2023-05-15T07:56:44.894Z,2.60
2023-05-15T07:59:12.030Z,2.40
2023-05-15T08:01:39.148Z,2.60
2023-05-15T08:04:07.597Z,3.00
2023-05-15T08:06:34.838Z,2.78
2023-05-15T08:09:02.020Z,2.63
2023-05-15T08:11:29.096Z,2.60
2023-05-15T08:13:56.240Z,2.60
2023-05-15T08:16:23.454Z,2.78
2023-05-15T08:18:53.490Z,2.78
2023-05-15T08:21:20.669Z,2.75
2023-05-15T08:23:47.953Z,2.85
2023-05-15T08:26:15.062Z,2.92
2023-05-15T08:28:42.166Z,3.20
2023-05-15T08:31:09.298Z,2.85
2023-05-15T08:33:36.435Z,2.80
2023-05-15T08:36:03.580Z,2.70
2023-05-15T08:38:31.353Z,2.60
2023-05-15T08:40:58.876Z,3.00
2023-05-15T08:43:25.951Z,3.20
2023-05-15T08:45:53.297Z,2.50
2023-05-15T08:48:21.177Z,2.92
2023-05-15T08:50:48.477Z,2.50
2023-05-15T08:53:15.672Z,2.40
2023-05-15T08:55:42.869Z,2.17
2023-05-15T08:58:09.984Z,2.53
2023-05-15T09:00:37.528Z,2.30
2023-05-15T09:03:05.022Z,2.35
2023-05-15T09:05:32.198Z,2.58
2023-05-15T09:08:01.950Z,2.10
2023-05-15T09:10:29.108Z,2.35
2023-05-15T09:12:56.216Z,2.35
2023-05-15T09:15:25.410Z,2.10
2023-05-15T09:17:52.914Z,2.53
2023-05-15T09:20:26.999Z,2.40
2023-05-15T09:22:54.216Z,2.65
2023-05-15T09:25:40.649Z,2.80
2023-05-15T09:28:09.001Z,2.85
2023-05-15T09:30:39.337Z,2.50
2023-05-15T09:33:06.484Z,2.70
2023-05-15T09:35:37.358Z,2.50
2023-05-15T09:38:05.264Z,2.65
2023-05-15T09:40:32.716Z,2.58
2023-05-15T09:42:59.852Z,2.95
2023-05-15T09:45:29.669Z,2.42
2023-05-15T09:47:59.913Z,2.78
2023-05-15T09:50:32.862Z,2.42
2023-05-15T09:53:00.453Z,2.92
2023-05-15T09:55:27.656Z,3.03
2023-05-15T09:58:11.012Z,3.08
2023-05-15T10:00:48.214Z,3.30
2023-05-15T10:03:16.714Z,3.20
2023-05-15T10:05:44.456Z,3.47
2023-05-15T10:08:12.304Z,3.28
2023-05-15T10:10:39.441Z,3.65
2023-05-15T10:13:06.837Z,4.05
2023-05-15T10:15:33.920Z,4.05
2023-05-15T10:18:01.272Z,4.05
2023-05-15T10:20:28.479Z,4.20
2023-05-15T10:22:56.134Z,4.10
2023-05-15T10:25:42.074Z,4.78
2023-05-15T10:28:10.122Z,4.20
2023-05-15T10:30:37.420Z,5.20
2023-05-15T10:33:05.380Z,5.72
2023-05-15T10:35:32.540Z,5.22
2023-05-15T10:37:59.746Z,4.28
2023-05-15T10:40:27.703Z,3.55
2023-05-15T10:42:55.103Z,2.50
2023-05-15T10:45:22.228Z,2.20
2023-05-15T10:47:49.331Z,1.98
2023-05-15T10:50:16.442Z,1.42
2023-05-15T10:52:43.552Z,1.77
2023-05-15T10:55:11.225Z,1.40
2023-05-15T10:57:38.378Z,1.40
2023-05-15T11:00:08.424Z,1.70
2023-05-15T11:02:38.943Z,1.30
2023-05-15T11:05:07.089Z,3.28
2023-05-15T11:07:34.341Z,2.10
2023-05-15T11:10:02.054Z,2.88
2023-05-15T11:12:50.220Z,4.47
2023-05-15T11:15:17.358Z,8.32
2023-05-15T11:17:44.915Z,7.93
2023-05-15T11:20:11.975Z,4.10
2023-05-15T11:22:40.400Z,3.50
2023-05-15T11:25:12.371Z,3.90
2023-05-15T11:27:40.270Z,1.52
2023-05-15T11:30:08.139Z,1.60
2023-05-15T11:32:41.591Z,2.15
2023-05-15T11:35:12.384Z,1.95
2023-05-15T11:37:49.532Z,2.00
2023-05-15T11:40:24.476Z,1.98
2023-05-15T11:43:01.617Z,1.90
2023-05-15T11:45:29.640Z,1.60
2023-05-15T11:47:57.236Z,1.77
2023-05-15T11:50:24.949Z,1.70
2023-05-15T11:52:52.188Z,1.70
2023-05-15T11:55:19.383Z,1.85
2023-05-15T11:57:47.448Z,1.67
2023-05-15T12:00:14.693Z,1.95
2023-05-15T12:02:42.127Z,2.22
2023-05-15T12:05:09.496Z,2.05
2023-05-15T12:07:38.141Z,1.73
2023-05-15T12:10:05.467Z,1.88
2023-05-15T12:12:32.619Z,1.88
2023-05-15T12:14:59.778Z,1.67
2023-05-15T12:17:27.688Z,2.10
2023-05-15T12:19:54.962Z,1.92
2023-05-15T12:22:22.136Z,2.03
2023-05-15T12:24:49.307Z,2.05
2023-05-15T12:27:16.423Z,2.20
2023-05-15T12:29:43.529Z,1.92
2023-05-15T12:32:10.726Z,2.17
2023-05-15T12:34:37.996Z,2.15
2023-05-15T12:37:06.066Z,2.08
2023-05-15T12:39:33.132Z,2.00
2023-05-15T12:42:00.277Z,2.10
2023-05-15T12:44:27.398Z,2.20
2023-05-15T12:46:55.537Z,1.80
2023-05-15T12:49:23.022Z,2.50
2023-05-15T12:51:50.232Z,2.83
2023-05-15T12:54:20.737Z,2.90
2023-05-15T12:56:48.599Z,2.60
2023-05-15T12:59:16.017Z,2.50
2023-05-15T13:01:43.298Z,2.80
2023-05-15T13:04:10.989Z,3.85
2023-05-15T13:06:46.885Z,2.50
2023-05-15T13:09:15.054Z,4.15
2023-05-15T13:11:45.504Z,3.00
2023-05-15T13:14:17.501Z,3.22
2023-05-15T13:16:47.895Z,3.15
2023-05-15T13:21:43.867Z,2.65
2023-05-15T13:24:11.085Z,2.63
2023-05-15T13:26:38.325Z,2.95
2023-05-15T13:29:05.774Z,2.05
2023-05-15T13:31:32.990Z,2.00
2023-05-15T13:34:00.062Z,2.00
2023-05-15T13:36:27.137Z,2.22
2023-05-15T13:38:54.170Z,2.03
2023-05-15T13:41:21.238Z,2.30
2023-05-15T13:43:49.360Z,2.30
2023-05-15T13:46:16.758Z,1.92
2023-05-15T13:48:43.881Z,2.40
2023-05-15T13:51:11.067Z,2.10
2023-05-15T13:53:38.226Z,2.15
2023-05-15T13:56:05.614Z,2.63
2023-05-15T13:58:33.148Z,2.30
2023-05-15T14:01:00.336Z,2.10
2023-05-15T14:03:27.519Z,2.92
2023-05-15T14:05:54.642Z,2.78
2023-05-15T14:08:21.785Z,2.65
2023-05-15T14:10:48.892Z,2.75
2023-05-15T14:13:16.601Z,2.85
2023-05-15T14:15:43.752Z,2.40
2023-05-15T14:18:10.903Z,2.80
2023-05-15T14:20:38.066Z,2.80
2023-05-15T14:23:05.264Z,2.72
2023-05-15T14:25:32.407Z,2.55
2023-05-15T14:27:59.620Z,2.45
2023-05-15T14:30:26.999Z,2.70
2023-05-15T14:32:54.323Z,3.13
2023-05-15T14:35:21.467Z,3.58
2023-05-15T14:37:48.558Z,3.83
2023-05-15T14:40:15.952Z,3.70
2023-05-15T14:42:43.128Z,3.85
2023-05-15T14:45:10.493Z,4.30
2023-05-15T14:47:37.882Z,4.20
2023-05-15T14:50:05.386Z,4.07
2023-05-15T14:52:32.657Z,4.22
2023-05-15T14:55:08.628Z,4.18
2023-05-15T14:57:37.219Z,5.22
2023-05-15T15:00:06.312Z,5.45
2023-05-15T15:02:33.678Z,5.85
2023-05-15T15:05:00.835Z,6.03
2023-05-15T15:07:28.735Z,5.57
2023-05-15T15:09:55.800Z,5.78
2023-05-15T15:12:23.082Z,5.90
2023-05-15T15:14:50.229Z,5.82
2023-05-15T15:17:17.309Z,5.85
2023-05-15T15:19:44.385Z,6.00
2023-05-15T15:22:11.595Z,5.80
2023-05-15T15:24:38.990Z,5.47
2023-05-15T15:27:06.875Z,5.78
2023-05-15T15:29:33.982Z,6.32
2023-05-15T15:32:01.047Z,5.90
2023-05-15T15:34:28.153Z,6.28
2023-05-15T15:36:55.202Z,5.68
2023-05-15T15:39:22.294Z,5.85
2023-05-15T15:41:49.406Z,5.63
2023-05-15T15:44:16.588Z,6.18
2023-05-15T15:46:43.638Z,6.35
2023-05-15T15:49:10.738Z,6.30
2023-05-15T15:51:37.820Z,6.13
2023-05-15T15:54:05.181Z,6.13
2023-05-15T15:56:32.534Z,5.68
2023-05-15T15:58:59.712Z,5.72
2023-05-15T16:01:26.824Z,5.90
2023-05-15T16:03:53.907Z,6.32
2023-05-15T16:06:20.998Z,6.38
2023-05-15T16:08:48.095Z,5.55
2023-05-15T16:11:16.332Z,6.25
2023-05-15T16:13:43.598Z,6.13
2023-05-15T16:16:10.961Z,5.47
2023-05-15T16:18:38.071Z,5.38
2023-05-15T16:21:05.211Z,5.32
2023-05-15T16:23:35.934Z,5.90
2023-05-15T16:26:03.806Z,5.40
2023-05-15T16:28:31.558Z,5.53
2023-05-15T16:31:01.725Z,4.82
2023-05-15T16:33:29.433Z,5.63
2023-05-15T16:35:56.695Z,5.07
2023-05-15T16:38:24.684Z,5.15
2023-05-15T16:40:51.899Z,5.40
2023-05-15T16:43:19.068Z,4.95
2023-05-15T16:45:46.164Z,5.00
2023-05-15T16:48:13.327Z,5.20
2023-05-15T16:50:40.489Z,5.38
2023-05-15T16:53:08.128Z,5.20
2023-05-15T16:55:35.307Z,5.35
2023-05-15T16:58:02.391Z,5.93
2023-05-15T17:00:29.512Z,4.88
2023-05-15T17:02:56.644Z,5.60
2023-05-15T17:05:23.789Z,5.60
2023-05-15T17:07:50.889Z,6.10
2023-05-15T17:10:17.966Z,6.80
2023-05-15T17:12:45.242Z,5.85
2023-05-15T17:15:13.112Z,5.35
2023-05-15T17:17:40.368Z,9.38
2023-05-15T17:20:07.837Z,5.78
2023-05-15T17:22:34.889Z,5.88
2023-05-15T17:25:01.985Z,5.25
2023-05-15T17:27:29.121Z,5.18
2023-05-15T17:29:56.303Z,5.55
2023-05-15T17:32:23.493Z,5.50
2023-05-15T17:34:51.431Z,5.55
2023-05-15T17:37:18.625Z,5.32
2023-05-15T17:39:45.793Z,5.40
2023-05-15T17:42:12.924Z,6.00
2023-05-15T17:44:40.060Z,5.18
2023-05-15T17:47:07.728Z,5.25
2023-05-15T17:49:34.757Z,5.85
2023-05-15T17:52:01.932Z,5.88
2023-05-15T17:54:29.045Z,6.05
2023-05-15T17:56:56.163Z,6.10
2023-05-15T17:59:23.222Z,7.03
2023-05-15T18:01:50.322Z,6.30
2023-05-15T18:04:17.482Z,6.93
2023-05-15T18:06:44.601Z,7.90
2023-05-15T18:09:11.870Z,7.05
2023-05-15T18:11:38.938Z,7.35
2023-05-15T18:14:06.390Z,7.63
2023-05-15T18:16:33.462Z,7.47
2023-05-15T18:19:00.648Z,7.00
2023-05-15T18:21:27.811Z,7.15
2023-05-15T18:23:54.850Z,6.55
2023-05-15T18:26:22.180Z,6.95
2023-05-15T18:28:49.656Z,6.50
2023-05-15T18:31:18.359Z,6.72
2023-05-15T18:33:45.740Z,7.55
2023-05-15T18:36:12.862Z,6.68
2023-05-15T18:38:39.927Z,6.97
2023-05-15T18:41:07.050Z,7.10
2023-05-15T18:43:34.188Z,6.68
2023-05-15T18:46:01.288Z,6.13
2023-05-15T18:48:28.328Z,6.68
2023-05-15T18:50:55.794Z,6.22
2023-05-15T18:53:22.848Z,6.80
2023-05-15T18:55:49.900Z,6.72
2023-05-15T18:58:16.996Z,7.78
2023-05-15T19:00:44.142Z,7.50
2023-05-15T19:03:11.446Z,7.35
2023-05-15T19:05:38.596Z,8.80
2023-05-15T19:08:05.918Z,7.82
2023-05-15T19:10:33.123Z,8.07
2023-05-15T19:13:00.248Z,14.82
2023-05-15T19:15:27.346Z,8.68
2023-05-15T19:17:54.414Z,7.05
2023-05-15T19:20:21.434Z,7.10
2023-05-15T19:22:48.605Z,7.32
2023-05-15T19:25:15.734Z,7.50
2023-05-15T19:27:42.887Z,6.93
2023-05-15T19:30:10.307Z,6.82
2023-05-15T19:32:37.691Z,7.20
2023-05-15T19:35:05.273Z,6.90
2023-05-15T19:37:32.406Z,7.22
2023-05-15T19:39:59.714Z,7.75
2023-05-15T19:42:26.983Z,7.55
2023-05-15T19:44:54.130Z,10.40
2023-05-15T19:47:21.380Z,8.57
2023-05-15T19:49:48.482Z,7.50
2023-05-15T19:52:16.337Z,8.63
2023-05-15T19:54:44.178Z,8.43
2023-05-15T19:57:11.210Z,9.27
2023-05-15T19:59:38.431Z,9.45
2023-05-15T20:02:09.151Z,10.18
2023-05-15T20:04:36.426Z,10.95
2023-05-15T20:07:04.197Z,10.80
2023-05-15T20:09:31.334Z,10.50
2023-05-15T20:11:58.449Z,9.90
2023-05-15T20:14:25.547Z,9.82
2023-05-15T20:16:52.726Z,9.80
2023-05-15T20:19:21.941Z,11.07
2023-05-15T20:21:49.888Z,12.13
2023-05-15T20:24:18.035Z,13.23
2023-05-15T20:26:45.326Z,12.90
2023-05-15T20:29:12.449Z,11.93
2023-05-15T20:31:40.466Z,12.43
2023-05-15T20:34:08.235Z,11.85
2023-05-15T20:36:38.779Z,12.63
2023-05-15T20:39:07.194Z,12.73
2023-05-15T20:41:34.632Z,12.35
2023-05-15T20:44:01.938Z,12.48
2023-05-15T20:46:30.253Z,12.02
2023-05-15T20:48:57.707Z,11.65
2023-05-15T20:51:25.047Z,11.02
2023-05-15T20:53:52.108Z,10.82
2023-05-15T20:56:19.261Z,10.68
2023-05-15T20:58:46.402Z,10.77
2023-05-15T21:01:13.595Z,10.88
2023-05-15T21:03:40.874Z,10.05
2023-05-15T21:06:08.164Z,10.60
2023-05-15T21:08:35.278Z,11.43
2023-05-15T21:11:02.413Z,10.77
2023-05-15T21:13:29.585Z,10.98
2023-05-15T21:15:56.802Z,10.85
2023-05-15T21:18:23.912Z,11.68
2023-05-15T21:20:51.622Z,11.30
2023-05-15T21:23:20.913Z,11.68
2023-05-15T21:25:48.084Z,12.18
2023-05-15T21:28:15.655Z,12.15
2023-05-15T21:30:42.845Z,13.23
2023-05-15T21:33:10.054Z,12.35
2023-05-15T21:35:37.972Z,13.52
2023-05-15T21:38:05.147Z,13.68
2023-05-15T21:40:32.220Z,13.35
2023-05-15T21:42:59.286Z,13.90
2023-05-15T21:45:26.343Z,14.77
2023-05-15T21:47:53.505Z,14.75
2023-05-15T21:50:20.600Z,14.45
2023-05-15T21:52:50.789Z,15.10
2023-05-15T21:55:18.124Z,15.15
2023-05-15T21:57:45.396Z,15.25
2023-05-15T22:00:12.596Z,15.32
2023-05-15T22:02:39.857Z,16.50
2023-05-15T22:05:07.209Z,15.77
2023-05-15T22:07:34.275Z,16.20
2023-05-15T22:10:03.062Z,16.90
2023-05-15T22:12:31.652Z,17.00
2023-05-15T22:14:59.838Z,17.60
2023-05-15T22:17:28.923Z,17.25
2023-05-15T22:20:06.491Z,17.33
2023-05-15T22:22:34.439Z,17.58
2023-05-15T22:25:01.597Z,17.85
2023-05-15T22:27:28.630Z,19.25
2023-05-15T22:29:55.812Z,18.73
2023-05-15T22:32:23.133Z,19.02
2023-05-15T22:34:50.302Z,19.40
2023-05-15T22:37:17.370Z,19.95
2023-05-15T22:39:44.444Z,20.00
2023-05-15T22:42:11.471Z,19.58
2023-05-15T22:44:38.642Z,21.33
2023-05-15T22:47:06.006Z,20.70
2023-05-15T22:49:33.663Z,20.45
2023-05-15T22:52:00.917Z,20.48
2023-05-15T22:54:28.045Z,20.88
2023-05-15T22:56:55.282Z,21.27
2023-05-15T22:59:22.356Z,20.33
2023-05-15T23:01:49.683Z,19.42
2023-05-15T23:04:17.417Z,20.08
2023-05-15T23:06:44.610Z,19.63
2023-05-15T23:09:11.835Z,19.98
2023-05-15T23:11:39.184Z,19.95
2023-05-15T23:14:08.160Z,18.95
2023-05-15T23:16:35.571Z,19.40
2023-05-15T23:19:02.801Z,18.58
2023-05-15T23:21:29.913Z,19.40
2023-05-15T23:23:57.031Z,20.58
2023-05-15T23:26:24.056Z,20.48
2023-05-15T23:28:51.337Z,21.73
2023-05-15T23:31:18.511Z,20.70
2023-05-15T23:33:45.687Z,20.48
2023-05-15T23:36:12.779Z,21.55
2023-05-15T23:38:40.352Z,20.85
2023-05-15T23:41:07.849Z,21.10
2023-05-15T23:43:34.953Z,22.30
2023-05-15T23:46:02.106Z,38.45
2023-05-15T23:48:31.635Z,25.35
2023-05-15T23:50:58.742Z,23.73
2023-05-15T23:53:25.939Z,25.42
2023-05-15T23:55:53.028Z,25.88
2023-05-15T23:58:20.175Z,26.73
